sensor_id;sensor_type;location;lat;lon;timestamp;pressure;altitude;pressure_sealevel;temperature;humidity
75617;BME280;64200;55.426;37.758;2023-05-10T00:03:38;100317.53;;;9.85;32.80
75617;BME280;64200;55.426;37.758;2023-05-10T00:08:40;100315.88;;;9.88;33.25
75617;BME280;64200;55.426;37.758;2023-05-10T00:13:41;100306.94;;;9.67;33.34
75617;BME280;64200;55.426;37.758;2023-05-10T00:18:41;100329.78;;;9.75;33.16
75617;BME280;64200;55.426;37.758;2023-05-10T00:23:42;100314.97;;;9.78;33.55
75617;BME280;64200;55.426;37.758;2023-05-10T00:28:42;100309.19;;;9.73;33.40
75617;BME280;64200;55.426;37.758;2023-05-10T00:33:43;100313.97;;;9.72;33.48
75617;BME280;64200;55.426;37.758;2023-05-10T00:38:46;100327.88;;;9.59;34.27
75617;BME280;64200;55.426;37.758;2023-05-10T00:43:47;100319.59;;;9.43;34.78
75617;BME280;64200;55.426;37.758;2023-05-10T00:48:49;100319.59;;;9.43;35.07
75617;BME280;64200;55.426;37.758;2023-05-10T00:53:50;100318.03;;;9.42;35.30
75617;BME280;64200;55.426;37.758;2023-05-10T00:58:51;100315.50;;;9.47;34.97
75617;BME280;64200;55.426;37.758;2023-05-10T01:03:52;100317.47;;;9.47;35.64
75617;BME280;64200;55.426;37.758;2023-05-10T01:08:53;100315.00;;;9.36;35.46
75617;BME280;64200;55.426;37.758;2023-05-10T01:13:57;100322.25;;;9.34;35.16
75617;BME280;64200;55.426;37.758;2023-05-10T01:18:58;100300.75;;;9.34;35.33
75617;BME280;64200;55.426;37.758;2023-05-10T01:39:55;100303.75;;;9.27;35.27
75617;BME280;64200;55.426;37.758;2023-05-10T01:45:14;100308.75;;;9.32;36.16
75617;BME280;64200;55.426;37.758;2023-05-10T01:50:19;100309.97;;;9.31;35.75
75617;BME280;64200;55.426;37.758;2023-05-10T01:55:25;100303.44;;;9.38;36.12
75617;BME280;64200;55.426;37.758;2023-05-10T02:00:28;100300.09;;;9.43;35.89
75617;BME280;64200;55.426;37.758;2023-05-10T02:05:32;100301.41;;;9.38;35.82
75617;BME280;64200;55.426;37.758;2023-05-10T02:10:36;100302.78;;;9.46;36.01
75617;BME280;64200;55.426;37.758;2023-05-10T02:15:38;100305.47;;;9.50;36.07
75617;BME280;64200;55.426;37.758;2023-05-10T02:20:42;100302.59;;;9.54;35.78
75617;BME280;64200;55.426;37.758;2023-05-10T02:25:43;100294.66;;;9.52;36.30
75617;BME280;64200;55.426;37.758;2023-05-10T02:30:47;100298.13;;;9.56;36.13
75617;BME280;64200;55.426;37.758;2023-05-10T02:35:48;100307.16;;;9.60;36.14
75617;BME280;64200;55.426;37.758;2023-05-10T02:40:51;100304.47;;;9.70;36.27
75617;BME280;64200;55.426;37.758;2023-05-10T02:45:52;100296.25;;;9.79;36.37
75617;BME280;64200;55.426;37.758;2023-05-10T02:50:55;100300.16;;;9.81;36.50
75617;BME280;64200;55.426;37.758;2023-05-10T02:55:59;100293.91;;;9.90;36.00
75617;BME280;64200;55.426;37.758;2023-05-10T03:01:01;100297.59;;;10.00;36.36
75617;BME280;64200;55.426;37.758;2023-05-10T03:06:01;100302.19;;;10.07;35.98
75617;BME280;64200;55.426;37.758;2023-05-10T03:16:16;100305.75;;;10.20;35.96
75617;BME280;64200;55.426;37.758;2023-05-10T03:21:26;100298.81;;;10.25;36.30
75617;BME280;64200;55.426;37.758;2023-05-10T03:26:29;100304.16;;;10.06;36.38
75617;BME280;64200;55.426;37.758;2023-05-10T03:31:30;100288.13;;;10.10;35.96
75617;BME280;64200;55.426;37.758;2023-05-10T03:36:30;100292.25;;;10.18;36.40
75617;BME280;64200;55.426;37.758;2023-05-10T03:41:31;100287.75;;;10.21;36.42
75617;BME280;64200;55.426;37.758;2023-05-10T03:46:31;100296.25;;;10.30;36.80
75617;BME280;64200;55.426;37.758;2023-05-10T03:51:32;100294.25;;;10.44;36.55
75617;BME280;64200;55.426;37.758;2023-05-10T03:56:32;100290.63;;;10.56;36.73
75617;BME280;64200;55.426;37.758;2023-05-10T04:01:34;100295.53;;;10.65;36.73
75617;BME280;64200;55.426;37.758;2023-05-10T04:06:34;100285.03;;;10.69;36.25
75617;BME280;64200;55.426;37.758;2023-05-10T04:11:35;100280.09;;;10.73;35.94
75617;BME280;64200;55.426;37.758;2023-05-10T04:16:35;100265.50;;;10.69;35.99
75617;BME280;64200;55.426;37.758;2023-05-10T04:21:36;100275.38;;;10.83;36.00
75617;BME280;64200;55.426;37.758;2023-05-10T04:26:36;100282.13;;;10.95;35.69
75617;BME280;64200;55.426;37.758;2023-05-10T04:31:37;100272.13;;;11.06;35.53
75617;BME280;64200;55.426;37.758;2023-05-10T04:36:38;100277.97;;;11.21;34.42
75617;BME280;64200;55.426;37.758;2023-05-10T04:41:38;100277.41;;;11.27;34.74
75617;BME280;64200;55.426;37.758;2023-05-10T04:46:39;100276.75;;;11.45;34.31
75617;BME280;64200;55.426;37.758;2023-05-10T04:51:39;100268.44;;;11.63;34.58
75617;BME280;64200;55.426;37.758;2023-05-10T04:56:40;100270.53;;;11.81;34.03
75617;BME280;64200;55.426;37.758;2023-05-10T05:01:41;100270.22;;;12.10;34.61
75617;BME280;64200;55.426;37.758;2023-05-10T05:06:41;100262.47;;;12.24;33.81
75617;BME280;64200;55.426;37.758;2023-05-10T05:11:42;100277.56;;;12.45;33.93
75617;BME280;64200;55.426;37.758;2023-05-10T05:16:42;100271.72;;;12.71;33.97
75617;BME280;64200;55.426;37.758;2023-05-10T05:21:43;100273.56;;;12.92;33.83
75617;BME280;64200;55.426;37.758;2023-05-10T05:26:43;100274.00;;;13.28;33.58
75617;BME280;64200;55.426;37.758;2023-05-10T05:31:44;100260.31;;;13.30;33.01
75617;BME280;64200;55.426;37.758;2023-05-10T05:36:45;100261.34;;;13.60;33.03
75617;BME280;64200;55.426;37.758;2023-05-10T05:41:45;100258.34;;;14.07;32.53
75617;BME280;64200;55.426;37.758;2023-05-10T05:46:46;100265.53;;;14.32;31.70
75617;BME280;64200;55.426;37.758;2023-05-10T05:51:47;100261.72;;;14.68;30.88
75617;BME280;64200;55.426;37.758;2023-05-10T05:56:49;100261.59;;;15.02;30.28
75617;BME280;64200;55.426;37.758;2023-05-10T06:01:50;100247.56;;;15.17;28.81
75617;BME280;64200;55.426;37.758;2023-05-10T06:06:51;100241.34;;;15.42;28.27
75617;BME280;64200;55.426;37.758;2023-05-10T06:11:52;100243.66;;;15.89;27.85
75617;BME280;64200;55.426;37.758;2023-05-10T06:16:52;100241.91;;;16.12;25.69
75617;BME280;64200;55.426;37.758;2023-05-10T06:21:53;100229.75;;;16.21;26.55
75617;BME280;64200;55.426;37.758;2023-05-10T06:26:53;100245.13;;;17.08;26.46
75617;BME280;64200;55.426;37.758;2023-05-10T06:31:54;100244.94;;;17.43;25.65
75617;BME280;64200;55.426;37.758;2023-05-10T06:36:54;100232.22;;;17.53;24.92
75617;BME280;64200;55.426;37.758;2023-05-10T06:41:55;100239.69;;;17.94;23.81
75617;BME280;64200;55.426;37.758;2023-05-10T06:46:56;100227.41;;;17.92;24.10
75617;BME280;64200;55.426;37.758;2023-05-10T06:51:56;100237.91;;;18.40;23.70
75617;BME280;64200;55.426;37.758;2023-05-10T06:56:57;100236.66;;;18.47;22.91
75617;BME280;64200;55.426;37.758;2023-05-10T07:01:58;100232.72;;;18.93;22.88
75617;BME280;64200;55.426;37.758;2023-05-10T07:06:58;100230.47;;;19.42;21.21
75617;BME280;64200;55.426;37.758;2023-05-10T07:11:59;100226.59;;;19.57;21.59
75617;BME280;64200;55.426;37.758;2023-05-10T07:16:59;100228.38;;;19.88;20.26
75617;BME280;64200;55.426;37.758;2023-05-10T07:22:00;100232.91;;;20.90;20.00
75617;BME280;64200;55.426;37.758;2023-05-10T07:27:01;100227.25;;;21.62;19.25
75617;BME280;64200;55.426;37.758;2023-05-10T07:32:01;100225.22;;;21.26;18.67
75617;BME280;64200;55.426;37.758;2023-05-10T07:37:02;100218.78;;;22.55;19.15
75617;BME280;64200;55.426;37.758;2023-05-10T07:42:02;100215.44;;;23.08;16.85
75617;BME280;64200;55.426;37.758;2023-05-10T07:47:03;100212.94;;;23.37;17.22
75617;BME280;64200;55.426;37.758;2023-05-10T07:52:03;100216.38;;;24.21;16.14
75617;BME280;64200;55.426;37.758;2023-05-10T07:57:04;100193.56;;;25.38;14.27
75617;BME280;64200;55.426;37.758;2023-05-10T08:02:05;100181.81;;;26.28;14.12
75617;BME280;64200;55.426;37.758;2023-05-10T08:07:06;100187.59;;;25.78;12.56
75617;BME280;64200;55.426;37.758;2023-05-10T08:12:07;100160.25;;;24.02;13.69
75617;BME280;64200;55.426;37.758;2023-05-10T08:17:08;100183.59;;;22.14;14.78
75617;BME280;64200;55.426;37.758;2023-05-10T08:22:09;100171.59;;;21.78;15.16
75617;BME280;64200;55.426;37.758;2023-05-10T08:27:10;100164.66;;;22.22;15.55
75617;BME280;64200;55.426;37.758;2023-05-10T08:32:11;100170.19;;;24.84;15.01
75617;BME280;64200;55.426;37.758;2023-05-10T08:37:11;100162.16;;;24.82;13.40
75617;BME280;64200;55.426;37.758;2023-05-10T08:42:16;100170.03;;;23.02;14.39
75617;BME280;64200;55.426;37.758;2023-05-10T08:47:18;100163.56;;;22.83;14.85
75617;BME280;64200;55.426;37.758;2023-05-10T08:52:19;100153.44;;;21.86;14.76
75617;BME280;64200;55.426;37.758;2023-05-10T08:57:20;100147.66;;;21.43;15.31
75617;BME280;64200;55.426;37.758;2023-05-10T09:02:23;100139.47;;;21.64;15.45
75617;BME280;64200;55.426;37.758;2023-05-10T09:07:23;100144.53;;;21.77;14.94
75617;BME280;64200;55.426;37.758;2023-05-10T09:12:24;100140.78;;;21.02;15.53
75617;BME280;64200;55.426;37.758;2023-05-10T09:17:25;100128.81;;;20.84;15.44
75617;BME280;64200;55.426;37.758;2023-05-10T09:22:26;100122.66;;;21.11;15.19
75617;BME280;64200;55.426;37.758;2023-05-10T09:27:27;100117.41;;;20.48;15.98
75617;BME280;64200;55.426;37.758;2023-05-10T09:32:40;100124.97;;;22.55;16.11
75617;BME280;64200;55.426;37.758;2023-05-10T09:37:48;100122.56;;;22.91;14.44
75617;BME280;64200;55.426;37.758;2023-05-10T09:43:04;100104.97;;;22.93;15.01
75617;BME280;64200;55.426;37.758;2023-05-10T09:48:06;100116.75;;;26.13;15.07
75617;BME280;64200;55.426;37.758;2023-05-10T09:53:07;100118.28;;;34.00;9.31
75617;BME280;64200;55.426;37.758;2023-05-10T09:58:07;100117.63;;;36.01;6.47
75617;BME280;64200;55.426;37.758;2023-05-10T10:03:15;100122.00;;;38.52;6.48
75617;BME280;64200;55.426;37.758;2023-05-10T10:08:17;100107.38;;;36.51;5.57
75617;BME280;64200;55.426;37.758;2023-05-10T10:13:18;100079.13;;;31.23;7.39
75617;BME280;64200;55.426;37.758;2023-05-10T10:18:19;100071.91;;;27.14;9.12
75617;BME280;64200;55.426;37.758;2023-05-10T10:23:23;100071.03;;;25.27;10.79
75617;BME280;64200;55.426;37.758;2023-05-10T10:34:18;100060.00;;;24.25;11.48
75617;BME280;64200;55.426;37.758;2023-05-10T10:39:14;100063.72;;;23.32;12.14
75617;BME280;64200;55.426;37.758;2023-05-10T10:54:40;100050.34;;;23.40;12.20
75617;BME280;64200;55.426;37.758;2023-05-10T10:59:42;100054.72;;;24.29;12.61
75617;BME280;64200;55.426;37.758;2023-05-10T11:04:44;100039.88;;;24.44;12.07
75617;BME280;64200;55.426;37.758;2023-05-10T11:09:49;100035.34;;;25.12;11.86
75617;BME280;64200;55.426;37.758;2023-05-10T11:14:50;100027.59;;;25.49;11.64
75617;BME280;64200;55.426;37.758;2023-05-10T11:20:13;100019.75;;;24.50;11.90
75617;BME280;64200;55.426;37.758;2023-05-10T11:25:14;100017.97;;;24.60;12.13
75617;BME280;64200;55.426;37.758;2023-05-10T11:30:15;100016.78;;;24.77;12.51
75617;BME280;64200;55.426;37.758;2023-05-10T11:35:16;100005.78;;;24.38;12.43
75617;BME280;64200;55.426;37.758;2023-05-10T11:40:17;100000.09;;;23.29;12.91
75617;BME280;64200;55.426;37.758;2023-05-10T11:45:17;100000.28;;;23.05;13.53
75617;BME280;64200;55.426;37.758;2023-05-10T11:50:18;99989.59;;;25.62;12.12
75617;BME280;64200;55.426;37.758;2023-05-10T11:55:19;99989.34;;;25.23;11.89
75617;BME280;64200;55.426;37.758;2023-05-10T12:00:20;99986.88;;;27.55;10.91
75617;BME280;64200;55.426;37.758;2023-05-10T12:05:21;99982.13;;;27.98;10.58
75617;BME280;64200;55.426;37.758;2023-05-10T12:10:26;99968.03;;;25.61;11.23
75617;BME280;64200;55.426;37.758;2023-05-10T12:15:27;99964.81;;;23.46;12.57
75617;BME280;64200;55.426;37.758;2023-05-10T12:20:28;99969.63;;;22.38;13.62
75617;BME280;64200;55.426;37.758;2023-05-10T12:25:31;99946.34;;;21.69;14.17
75617;BME280;64200;55.426;37.758;2023-05-10T12:30:34;99970.31;;;21.49;13.94
75617;BME280;64200;55.426;37.758;2023-05-10T12:35:46;99948.59;;;21.33;14.38
75617;BME280;64200;55.426;37.758;2023-05-10T12:40:47;99944.97;;;21.13;14.62
75617;BME280;64200;55.426;37.758;2023-05-10T12:45:47;99937.25;;;21.33;14.82
75617;BME280;64200;55.426;37.758;2023-05-10T12:50:49;99938.66;;;21.64;15.00
75617;BME280;64200;55.426;37.758;2023-05-10T12:55:49;99940.00;;;21.63;14.64
75617;BME280;64200;55.426;37.758;2023-05-10T13:00:50;99913.31;;;21.28;15.21
75617;BME280;64200;55.426;37.758;2023-05-10T13:05:51;99933.59;;;21.38;15.00
75617;BME280;64200;55.426;37.758;2023-05-10T13:10:52;99933.16;;;21.09;15.24
75617;BME280;64200;55.426;37.758;2023-05-10T13:15:53;99931.66;;;21.46;15.42
75617;BME280;64200;55.426;37.758;2023-05-10T13:20:54;99927.09;;;21.81;15.26
75617;BME280;64200;55.426;37.758;2023-05-10T13:25:55;99917.34;;;21.77;15.28
75617;BME280;64200;55.426;37.758;2023-05-10T13:30:56;99930.41;;;21.66;15.19
75617;BME280;64200;55.426;37.758;2023-05-10T13:35:56;99928.25;;;21.53;15.25
75617;BME280;64200;55.426;37.758;2023-05-10T13:40:57;99926.06;;;21.21;15.52
75617;BME280;64200;55.426;37.758;2023-05-10T13:45:58;99921.22;;;20.92;15.89
75617;BME280;64200;55.426;37.758;2023-05-10T13:50:58;99925.47;;;21.04;15.62
75617;BME280;64200;55.426;37.758;2023-05-10T13:55:59;99918.09;;;20.95;16.08
75617;BME280;64200;55.426;37.758;2023-05-10T14:01:00;99908.00;;;20.75;16.12
75617;BME280;64200;55.426;37.758;2023-05-10T14:06:00;99917.03;;;20.74;16.14
75617;BME280;64200;55.426;37.758;2023-05-10T14:11:01;99910.91;;;20.39;16.09
75617;BME280;64200;55.426;37.758;2023-05-10T14:16:01;99904.06;;;19.93;16.78
75617;BME280;64200;55.426;37.758;2023-05-10T14:21:03;99903.03;;;19.48;16.87
75617;BME280;64200;55.426;37.758;2023-05-10T14:26:03;99906.25;;;19.70;17.01
75617;BME280;64200;55.426;37.758;2023-05-10T14:31:04;99902.00;;;19.46;17.04
75617;BME280;64200;55.426;37.758;2023-05-10T14:36:06;99888.97;;;19.31;17.22
75617;BME280;64200;55.426;37.758;2023-05-10T14:41:07;99906.47;;;19.24;17.59
75617;BME280;64200;55.426;37.758;2023-05-10T14:46:08;99907.06;;;19.11;17.68
75617;BME280;64200;55.426;37.758;2023-05-10T14:51:08;99902.47;;;18.97;17.71
75617;BME280;64200;55.426;37.758;2023-05-10T14:56:09;99887.06;;;18.81;17.78
75617;BME280;64200;55.426;37.758;2023-05-10T15:01:11;99890.69;;;18.70;18.20
75617;BME280;64200;55.426;37.758;2023-05-10T15:06:14;99883.84;;;18.37;18.78
75617;BME280;64200;55.426;37.758;2023-05-10T15:11:16;99888.19;;;18.16;18.96
75617;BME280;64200;55.426;37.758;2023-05-10T15:16:16;99886.94;;;18.22;18.91
75617;BME280;64200;55.426;37.758;2023-05-10T15:21:17;99888.19;;;18.21;19.03
75617;BME280;64200;55.426;37.758;2023-05-10T15:26:18;99891.28;;;18.35;18.96
75617;BME280;64200;55.426;37.758;2023-05-10T15:31:19;99896.13;;;18.40;19.11
75617;BME280;64200;55.426;37.758;2023-05-10T15:36:20;99884.34;;;18.19;19.50
75617;BME280;64200;55.426;37.758;2023-05-10T15:41:21;99881.53;;;17.96;19.50
75617;BME280;64200;55.426;37.758;2023-05-10T15:46:21;99886.41;;;17.90;19.41
75617;BME280;64200;55.426;37.758;2023-05-10T15:51:22;99859.13;;;17.64;19.66
75617;BME280;64200;55.426;37.758;2023-05-10T15:56:23;99878.13;;;17.81;19.98
75617;BME280;64200;55.426;37.758;2023-05-10T16:01:26;99851.44;;;17.70;20.15
75617;BME280;64200;55.426;37.758;2023-05-10T16:06:27;99863.25;;;17.74;20.15
75617;BME280;64200;55.426;37.758;2023-05-10T16:11:28;99870.16;;;17.56;20.33
75617;BME280;64200;55.426;37.758;2023-05-10T16:16:28;99871.66;;;17.46;20.13
75617;BME280;64200;55.426;37.758;2023-05-10T16:21:30;99873.19;;;17.42;20.43
75617;BME280;64200;55.426;37.758;2023-05-10T16:26:33;99866.50;;;17.33;20.53
75617;BME280;64200;55.426;37.758;2023-05-10T16:31:39;99875.97;;;17.30;20.39
75617;BME280;64200;55.426;37.758;2023-05-10T16:36:43;99870.63;;;17.32;20.80
75617;BME280;64200;55.426;37.758;2023-05-10T16:41:47;99877.28;;;17.29;20.61
75617;BME280;64200;55.426;37.758;2023-05-10T16:46:48;99874.41;;;17.18;20.86
75617;BME280;64200;55.426;37.758;2023-05-10T16:51:48;99875.16;;;17.18;21.62
75617;BME280;64200;55.426;37.758;2023-05-10T16:56:49;99876.47;;;17.17;21.40
75617;BME280;64200;55.426;37.758;2023-05-10T17:01:49;99879.25;;;17.12;21.71
75617;BME280;64200;55.426;37.758;2023-05-10T17:06:52;99892.28;;;17.03;22.27
75617;BME280;64200;55.426;37.758;2023-05-10T17:11:53;99880.47;;;16.94;22.42
75617;BME280;64200;55.426;37.758;2023-05-10T17:16:53;99887.56;;;16.83;22.59
75617;BME280;64200;55.426;37.758;2023-05-10T17:21:55;99896.94;;;16.69;22.97
75617;BME280;64200;55.426;37.758;2023-05-10T17:26:56;99888.63;;;16.48;22.86
75617;BME280;64200;55.426;37.758;2023-05-10T17:31:57;99888.31;;;16.09;23.23
75617;BME280;64200;55.426;37.758;2023-05-10T17:36:58;99897.38;;;15.92;23.65
75617;BME280;64200;55.426;37.758;2023-05-10T17:41:58;99903.50;;;15.91;23.75
75617;BME280;64200;55.426;37.758;2023-05-10T17:47:00;99898.88;;;15.88;23.66
75617;BME280;64200;55.426;37.758;2023-05-10T17:52:01;99909.13;;;15.91;23.73
75617;BME280;64200;55.426;37.758;2023-05-10T17:57:03;99898.34;;;15.63;23.84
75617;BME280;64200;55.426;37.758;2023-05-10T18:02:03;99905.75;;;15.60;23.67
75617;BME280;64200;55.426;37.758;2023-05-10T18:07:04;99900.47;;;15.68;24.07
75617;BME280;64200;55.426;37.758;2023-05-10T18:12:05;99911.97;;;15.70;24.27
75617;BME280;64200;55.426;37.758;2023-05-10T18:17:06;99909.88;;;15.65;24.65
75617;BME280;64200;55.426;37.758;2023-05-10T18:22:07;99911.09;;;15.58;24.86
75617;BME280;64200;55.426;37.758;2023-05-10T18:27:08;99911.31;;;15.55;25.16
75617;BME280;64200;55.426;37.758;2023-05-10T18:32:09;99914.06;;;15.49;25.00
75617;BME280;64200;55.426;37.758;2023-05-10T18:37:11;99906.78;;;15.37;24.81
75617;BME280;64200;55.426;37.758;2023-05-10T18:42:11;99895.97;;;15.30;25.12
75617;BME280;64200;55.426;37.758;2023-05-10T18:47:12;99897.28;;;15.34;25.12
75617;BME280;64200;55.426;37.758;2023-05-10T18:52:15;99903.41;;;15.33;25.22
75617;BME280;64200;55.426;37.758;2023-05-10T18:57:16;99899.78;;;15.32;25.26
75617;BME280;64200;55.426;37.758;2023-05-10T19:02:17;99893.06;;;15.24;24.88
75617;BME280;64200;55.426;37.758;2023-05-10T19:07:17;99916.13;;;15.28;25.48
75617;BME280;64200;55.426;37.758;2023-05-10T19:12:18;99911.91;;;15.18;25.63
75617;BME280;64200;55.426;37.758;2023-05-10T19:17:19;99911.63;;;15.16;25.85
75617;BME280;64200;55.426;37.758;2023-05-10T19:22:19;99907.41;;;15.05;25.80
75617;BME280;64200;55.426;37.758;2023-05-10T19:27:20;99904.31;;;15.24;25.33
75617;BME280;64200;55.426;37.758;2023-05-10T19:32:21;99894.56;;;14.99;25.75
75617;BME280;64200;55.426;37.758;2023-05-10T19:37:22;99908.88;;;15.01;25.68
75617;BME280;64200;55.426;37.758;2023-05-10T19:42:23;99909.84;;;14.98;25.62
75617;BME280;64200;55.426;37.758;2023-05-10T19:47:23;99906.41;;;15.08;25.73
75617;BME280;64200;55.426;37.758;2023-05-10T19:52:24;99906.63;;;15.05;25.73
75617;BME280;64200;55.426;37.758;2023-05-10T19:57:25;99909.38;;;14.99;25.53
75617;BME280;64200;55.426;37.758;2023-05-10T20:02:26;99915.97;;;14.96;25.58
75617;BME280;64200;55.426;37.758;2023-05-10T20:07:27;99911.84;;;15.12;25.96
75617;BME280;64200;55.426;37.758;2023-05-10T20:12:28;99915.97;;;14.96;26.49
75617;BME280;64200;55.426;37.758;2023-05-10T20:17:38;99917.84;;;14.84;26.67
75617;BME280;64200;55.426;37.758;2023-05-10T20:22:39;99905.19;;;14.74;26.80
75617;BME280;64200;55.426;37.758;2023-05-10T20:27:40;99914.19;;;14.78;26.71
75617;BME280;64200;55.426;37.758;2023-05-10T20:32:40;99907.59;;;14.81;26.37
75617;BME280;64200;55.426;37.758;2023-05-10T20:43:37;99908.72;;;14.69;26.59
75617;BME280;64200;55.426;37.758;2023-05-10T20:48:38;99911.59;;;14.59;27.69
75617;BME280;64200;55.426;37.758;2023-05-10T20:53:38;99910.59;;;14.42;27.44
75617;BME280;64200;55.426;37.758;2023-05-10T20:58:39;99912.31;;;14.39;27.33
75617;BME280;64200;55.426;37.758;2023-05-10T21:03:40;99913.19;;;14.46;28.24
75617;BME280;64200;55.426;37.758;2023-05-10T21:08:40;99915.50;;;14.47;28.11
75617;BME280;64200;55.426;37.758;2023-05-10T21:13:41;99905.31;;;14.65;28.07
75617;BME280;64200;55.426;37.758;2023-05-10T21:18:41;99915.56;;;14.68;28.03
75617;BME280;64200;55.426;37.758;2023-05-10T21:23:45;99910.25;;;14.55;28.11
75617;BME280;64200;55.426;37.758;2023-05-10T21:28:45;99906.44;;;14.22;28.67
75617;BME280;64200;55.426;37.758;2023-05-10T21:33:46;99901.41;;;14.12;28.76
75617;BME280;64200;55.426;37.758;2023-05-10T21:38:46;99901.03;;;14.04;27.93
75617;BME280;64200;55.426;37.758;2023-05-10T21:43:49;99906.66;;;14.04;27.85
75617;BME280;64200;55.426;37.758;2023-05-10T21:48:50;99899.47;;;13.88;28.56
75617;BME280;64200;55.426;37.758;2023-05-10T21:53:50;99900.56;;;13.76;28.69
75617;BME280;64200;55.426;37.758;2023-05-10T21:58:51;99900.56;;;13.76;28.91
75617;BME280;64200;55.426;37.758;2023-05-10T22:03:52;99898.22;;;13.74;29.63
75617;BME280;64200;55.426;37.758;2023-05-10T22:08:52;99908.75;;;13.79;29.89
75617;BME280;64200;55.426;37.758;2023-05-10T22:13:53;99902.06;;;13.77;29.79
75617;BME280;64200;55.426;37.758;2023-05-10T22:18:53;99907.59;;;13.71;29.96
75617;BME280;64200;55.426;37.758;2023-05-10T22:23:54;99911.94;;;13.72;30.83
75617;BME280;64200;55.426;37.758;2023-05-10T22:28:54;99909.63;;;13.70;30.68
75617;BME280;64200;55.426;37.758;2023-05-10T22:33:55;99900.16;;;13.68;31.10
75617;BME280;64200;55.426;37.758;2023-05-10T22:38:55;99909.81;;;13.67;31.20
75617;BME280;64200;55.426;37.758;2023-05-10T22:43:56;99902.66;;;13.66;31.62
75617;BME280;64200;55.426;37.758;2023-05-10T22:48:58;99902.25;;;13.58;31.41
75617;BME280;64200;55.426;37.758;2023-05-10T22:53:58;99901.03;;;13.59;31.42
75617;BME280;64200;55.426;37.758;2023-05-10T22:58:58;99900.06;;;13.62;31.35
75617;BME280;64200;55.426;37.758;2023-05-10T23:03:59;99901.31;;;13.61;31.63
75617;BME280;64200;55.426;37.758;2023-05-10T23:09:00;99889.50;;;13.57;31.59
75617;BME280;64200;55.426;37.758;2023-05-10T23:14:00;99898.97;;;13.60;31.52
75617;BME280;64200;55.426;37.758;2023-05-10T23:19:01;99902.75;;;13.57;31.33
75617;BME280;64200;55.426;37.758;2023-05-10T23:24:01;99901.50;;;13.58;31.53
75617;BME280;64200;55.426;37.758;2023-05-10T23:29:02;99909.13;;;13.57;31.24
75617;BME280;64200;55.426;37.758;2023-05-10T23:34:02;99906.13;;;13.61;31.53
75617;BME280;64200;55.426;37.758;2023-05-10T23:39:03;99907.00;;;13.52;31.84
75617;BME280;64200;55.426;37.758;2023-05-10T23:44:04;99909.56;;;13.41;32.14
75617;BME280;64200;55.426;37.758;2023-05-10T23:49:08;99888.81;;;13.23;32.35
75617;BME280;64200;55.426;37.758;2023-05-10T23:54:09;99904.63;;;13.11;32.65
75617;BME280;64200;55.426;37.758;2023-05-10T23:59:09;99909.63;;;12.83;32.97
